Time;durP1;ratioP1;P1;durP2;ratioP2;P2;SDS_P1;SDS_P2;PMS_P1;PMS_P2;Temp;Humidity;BMP_temperature;BMP_pressure;BME280_temperature;BME280_humidity;BME280_pressure;Samples;Min_cycle;Max_cycle;Signal;HPM_P1;HPM_P2
2023/09/24 00:01:18;;;;;;;6.10;3.83;;;;;;;;;;5007361;28;25137;-66
2023/09/24 00:03:46;;;;;;;11.63;3.97;;;;;;;;;;5004886;28;25052;-68
2023/09/24 00:06:12;;;;;;;8.07;4.00;;;;;;;;;;5009004;28;25091;-68
2023/09/24 00:08:38;;;;;;;7.15;3.47;;;;;;;;;;5001347;28;25072;-67
2023/09/24 00:11:05;;;;;;;8.13;4.22;;;;;;;;;;4987769;28;25070;-71
2023/09/24 00:13:35;;;;;;;11.13;3.67;;;;;;;;;;4999017;28;25049;-69
2023/09/24 00:16:05;;;;;;;6.82;2.83;;;;;;;;;;4996656;28;25042;-66
2023/09/24 00:18:31;;;;;;;7.78;3.53;;;;;;;;;;5005715;28;25072;-68
2023/09/24 00:20:57;;;;;;;11.10;3.75;;;;;;;;;;5009667;28;25088;-67
2023/09/24 00:23:23;;;;;;;11.45;3.13;;;;;;;;;;5000914;28;25073;-67
2023/09/24 00:25:49;;;;;;;5.90;2.42;;;;;;;;;;5004246;28;25113;-67
2023/09/24 00:28:16;;;;;;;7.97;3.13;;;;;;;;;;5000708;28;25101;-68
2023/09/24 00:30:42;;;;;;;5.03;2.20;;;;;;;;;;5000540;28;25061;-68
2023/09/24 00:33:08;;;;;;;4.47;2.40;;;;;;;;;;4980910;28;25061;-68
2023/09/24 00:35:35;;;;;;;7.00;2.72;;;;;;;;;;5002602;28;25078;-68
2023/09/24 00:38:01;;;;;;;11.77;2.92;;;;;;;;;;4980376;28;25082;-69
2023/09/24 00:40:27;;;;;;;9.80;2.28;;;;;;;;;;5009188;28;25066;-68
2023/09/24 00:42:53;;;;;;;7.68;2.47;;;;;;;;;;5008024;28;25115;-65
2023/09/24 00:45:21;;;;;;;9.73;2.75;;;;;;;;;;5005647;28;25140;-73
2023/09/24 00:47:48;;;;;;;3.45;2.22;;;;;;;;;;5007854;28;25089;-72
2023/09/24 00:50:15;;;;;;;6.50;3.05;;;;;;;;;;5027446;23;25080;-67
2023/09/24 00:52:41;;;;;;;6.25;2.13;;;;;;;;;;5007244;28;25085;-66
2023/09/24 00:55:08;;;;;;;5.53;2.75;;;;;;;;;;5005345;28;25078;-66
2023/09/24 00:57:34;;;;;;;6.63;2.63;;;;;;;;;;4996703;28;25057;-66
2023/09/24 01:00:06;;;;;;;9.10;2.58;;;;;;;;;;4987184;28;25057;-67
2023/09/24 01:02:34;;;;;;;13.80;3.58;;;;;;;;;;4989779;28;25119;-66
2023/09/24 01:05:01;;;;;;;8.00;3.28;;;;;;;;;;4992234;28;25058;-66
2023/09/24 01:07:28;;;;;;;7.95;2.65;;;;;;;;;;4992268;28;25056;-66
2023/09/24 01:09:54;;;;;;;7.88;2.95;;;;;;;;;;4989851;28;25078;-66
2023/09/24 01:12:23;;;;;;;8.27;2.92;;;;;;;;;;4992984;28;25073;-67
2023/09/24 01:14:50;;;;;;;5.95;3.42;;;;;;;;;;4987287;28;25091;-67
2023/09/24 01:17:17;;;;;;;7.30;2.63;;;;;;;;;;4986672;28;25056;-68
2023/09/24 01:19:43;;;;;;;7.60;3.17;;;;;;;;;;4980638;28;25051;-66
2023/09/24 01:22:09;;;;;;;9.38;2.90;;;;;;;;;;4991858;28;25134;-67
2023/09/24 01:24:35;;;;;;;5.97;2.90;;;;;;;;;;4986622;28;25082;-67
2023/09/24 01:27:01;;;;;;;12.00;2.85;;;;;;;;;;4987650;28;25129;-66
2023/09/24 01:29:27;;;;;;;6.93;3.20;;;;;;;;;;4982901;28;25057;-66
2023/09/24 01:31:54;;;;;;;8.23;3.58;;;;;;;;;;4992842;28;25054;-65
2023/09/24 01:34:20;;;;;;;8.23;3.65;;;;;;;;;;4991704;28;25121;-68
2023/09/24 01:36:46;;;;;;;9.98;3.35;;;;;;;;;;4975312;28;25066;-66
2023/09/24 01:39:16;;;;;;;8.23;3.70;;;;;;;;;;4995878;28;25108;-67
2023/09/24 01:41:42;;;;;;;8.40;3.92;;;;;;;;;;4988997;28;25146;-66
2023/09/24 01:44:08;;;;;;;7.68;3.97;;;;;;;;;;4986286;28;25061;-67
2023/09/24 01:46:34;;;;;;;7.50;3.42;;;;;;;;;;4987244;28;25082;-69
2023/09/24 01:49:01;;;;;;;7.45;3.55;;;;;;;;;;4991685;28;25071;-66
2023/09/24 01:51:27;;;;;;;9.60;4.05;;;;;;;;;;4979615;28;25064;-69
2023/09/24 01:53:53;;;;;;;6.57;4.35;;;;;;;;;;4987802;28;25095;-67
2023/09/24 01:56:21;;;;;;;9.38;3.80;;;;;;;;;;4988301;28;25131;-68
2023/09/24 01:58:47;;;;;;;9.65;4.43;;;;;;;;;;4987657;28;25166;-66
2023/09/24 02:01:13;;;;;;;8.23;3.47;;;;;;;;;;4982092;28;25076;-67
2023/09/24 02:03:39;;;;;;;8.60;4.03;;;;;;;;;;4968936;28;25095;-65
2023/09/24 02:06:05;;;;;;;14.48;4.63;;;;;;;;;;4989103;28;25087;-66
2023/09/24 02:08:31;;;;;;;9.25;4.47;;;;;;;;;;4983113;28;25131;-66
2023/09/24 02:10:57;;;;;;;12.65;4.53;;;;;;;;;;4988595;28;25059;-66
2023/09/24 02:13:23;;;;;;;16.13;5.07;;;;;;;;;;4991622;28;25126;-65
2023/09/24 02:15:49;;;;;;;10.93;3.85;;;;;;;;;;4991424;28;25115;-66
2023/09/24 02:18:16;;;;;;;11.25;4.75;;;;;;;;;;4991779;28;25086;-67
2023/09/24 02:20:46;;;;;;;8.85;4.82;;;;;;;;;;5010999;28;25064;-66
2023/09/24 02:23:12;;;;;;;12.40;4.20;;;;;;;;;;4986524;28;25077;-68
2023/09/24 02:25:38;;;;;;;9.05;4.38;;;;;;;;;;4996319;28;25134;-65
2023/09/24 02:28:04;;;;;;;9.32;3.58;;;;;;;;;;4993594;28;25119;-68
2023/09/24 02:30:37;;;;;;;7.25;4.60;;;;;;;;;;4984592;28;25126;-67
2023/09/24 02:33:03;;;;;;;8.95;4.10;;;;;;;;;;4989376;28;25146;-68
2023/09/24 02:35:29;;;;;;;12.38;4.32;;;;;;;;;;4988905;28;25071;-67
2023/09/24 02:37:56;;;;;;;13.45;4.95;;;;;;;;;;4995102;28;25090;-66
2023/09/24 02:40:28;;;;;;;9.57;4.50;;;;;;;;;;4989364;28;25080;-65
2023/09/24 02:42:55;;;;;;;12.77;5.30;;;;;;;;;;4983809;28;25066;-67
2023/09/24 02:45:22;;;;;;;11.57;4.28;;;;;;;;;;4985182;28;25073;-68
2023/09/24 02:47:51;;;;;;;11.90;5.25;;;;;;;;;;4981679;28;25075;-68
2023/09/24 02:50:18;;;;;;;10.05;4.68;;;;;;;;;;4986951;28;25153;-67
2023/09/24 02:52:48;;;;;;;15.25;5.18;;;;;;;;;;4983032;28;25080;-66
2023/09/24 02:55:15;;;;;;;11.15;4.53;;;;;;;;;;4986997;28;25104;-67
2023/09/24 02:57:42;;;;;;;9.90;4.63;;;;;;;;;;4993221;28;25125;-67
2023/09/24 03:00:19;;;;;;;11.38;4.82;;;;;;;;;;4987104;28;25142;-67
2023/09/24 03:02:45;;;;;;;9.68;3.75;;;;;;;;;;4987048;28;25065;-70
2023/09/24 03:05:20;;;;;;;11.77;5.00;;;;;;;;;;4997240;28;25101;-66
2023/09/24 03:07:50;;;;;;;13.93;5.65;;;;;;;;;;4989118;28;25092;-68
2023/09/24 03:10:16;;;;;;;10.38;5.90;;;;;;;;;;5006697;28;25058;-68
2023/09/24 03:12:42;;;;;;;12.57;5.53;;;;;;;;;;4996360;28;25065;-67
2023/09/24 03:15:11;;;;;;;13.18;4.43;;;;;;;;;;4995278;28;25079;-65
2023/09/24 03:17:37;;;;;;;9.90;5.60;;;;;;;;;;4993068;28;25062;-66
2023/09/24 03:20:14;;;;;;;14.65;5.85;;;;;;;;;;4985714;28;25063;-67
2023/09/24 03:22:40;;;;;;;16.67;5.95;;;;;;;;;;4986328;28;25065;-69
2023/09/24 03:25:10;;;;;;;12.73;5.80;;;;;;;;;;4993726;28;25061;-67
2023/09/24 03:27:37;;;;;;;10.13;4.60;;;;;;;;;;5000334;28;25063;-69
2023/09/24 03:30:04;;;;;;;12.07;6.07;;;;;;;;;;5008889;28;25061;-67
2023/09/24 03:32:31;;;;;;;11.13;5.28;;;;;;;;;;4991016;28;25118;-67
2023/09/24 03:34:57;;;;;;;15.35;6.03;;;;;;;;;;5001273;28;25057;-66
2023/09/24 03:37:23;;;;;;;10.60;5.13;;;;;;;;;;4992770;28;25090;-68
2023/09/24 03:39:49;;;;;;;15.10;5.88;;;;;;;;;;4991430;28;25067;-67
2023/09/24 03:42:15;;;;;;;12.60;5.93;;;;;;;;;;4995423;28;25074;-66
2023/09/24 03:44:41;;;;;;;16.25;6.20;;;;;;;;;;4992083;28;25065;-66
2023/09/24 03:47:07;;;;;;;12.30;6.22;;;;;;;;;;4992397;28;25118;-65
2023/09/24 03:49:33;;;;;;;12.77;6.53;;;;;;;;;;4992090;28;25100;-66
2023/09/24 03:51:59;;;;;;;11.93;7.00;;;;;;;;;;4994535;28;25049;-65
2023/09/24 03:54:25;;;;;;;12.07;6.57;;;;;;;;;;4993540;28;25064;-68
2023/09/24 03:56:51;;;;;;;13.82;6.63;;;;;;;;;;4993711;28;25067;-66
2023/09/24 03:59:17;;;;;;;12.65;6.53;;;;;;;;;;4992100;28;25154;-67
2023/09/24 04:01:43;;;;;;;9.05;6.93;;;;;;;;;;4991173;28;25123;-67
2023/09/24 04:04:11;;;;;;;15.40;7.65;;;;;;;;;;4991671;28;25077;-68
2023/09/24 04:06:39;;;;;;;14.98;6.68;;;;;;;;;;4993501;28;25055;-66
2023/09/24 04:09:06;;;;;;;19.42;7.38;;;;;;;;;;4988391;28;25061;-68
2023/09/24 04:11:32;;;;;;;13.98;6.45;;;;;;;;;;4991361;28;25064;-66
2023/09/24 04:13:58;;;;;;;14.43;7.13;;;;;;;;;;4988833;28;25066;-65
2023/09/24 04:16:24;;;;;;;16.23;7.32;;;;;;;;;;4983693;28;25068;-66
2023/09/24 04:18:52;;;;;;;12.38;7.07;;;;;;;;;;4987637;28;25074;-67
2023/09/24 04:21:19;;;;;;;13.73;7.13;;;;;;;;;;4990038;28;25046;-68
2023/09/24 04:23:45;;;;;;;14.27;7.78;;;;;;;;;;4990969;28;25100;-67
2023/09/24 04:26:19;;;;;;;17.95;7.50;;;;;;;;;;4990828;28;25093;-66
2023/09/24 04:28:45;;;;;;;10.50;6.93;;;;;;;;;;4992717;28;25054;-65
2023/09/24 04:31:12;;;;;;;15.60;8.10;;;;;;;;;;4993448;28;25169;-66
2023/09/24 04:33:38;;;;;;;15.68;7.68;;;;;;;;;;4991598;28;25051;-67
2023/09/24 04:36:05;;;;;;;16.42;7.20;;;;;;;;;;4989708;28;25060;-67
2023/09/24 04:38:31;;;;;;;13.18;7.18;;;;;;;;;;4991272;28;25073;-68
2023/09/24 04:40:57;;;;;;;11.80;7.50;;;;;;;;;;4989927;28;25128;-66
2023/09/24 04:43:23;;;;;;;15.35;8.18;;;;;;;;;;4990304;28;25149;-67
2023/09/24 04:45:49;;;;;;;16.80;7.80;;;;;;;;;;4994419;28;25065;-70
2023/09/24 04:48:15;;;;;;;14.80;7.80;;;;;;;;;;4990776;28;25078;-67
2023/09/24 04:50:42;;;;;;;13.80;7.65;;;;;;;;;;4993606;28;25074;-68
2023/09/24 04:53:08;;;;;;;11.65;7.50;;;;;;;;;;4974817;28;25110;-67
2023/09/24 04:55:34;;;;;;;13.50;7.45;;;;;;;;;;4993550;28;25150;-66
2023/09/24 04:58:00;;;;;;;13.57;7.95;;;;;;;;;;4992303;28;25074;-67
2023/09/24 05:00:26;;;;;;;16.02;7.95;;;;;;;;;;4992278;28;25070;-67
2023/09/24 05:02:52;;;;;;;14.75;8.10;;;;;;;;;;4982792;28;25072;-66
2023/09/24 05:05:18;;;;;;;11.10;7.45;;;;;;;;;;4993235;28;25134;-70
2023/09/24 05:07:44;;;;;;;12.73;6.95;;;;;;;;;;4991037;28;25103;-64
2023/09/24 05:10:10;;;;;;;14.65;7.22;;;;;;;;;;4985584;28;25063;-66
2023/09/24 05:12:36;;;;;;;16.63;8.02;;;;;;;;;;4987152;28;25062;-66
2023/09/24 05:15:03;;;;;;;12.15;7.00;;;;;;;;;;4990991;28;25054;-65
2023/09/24 05:17:29;;;;;;;15.30;7.10;;;;;;;;;;4993177;28;25077;-66
2023/09/24 05:19:55;;;;;;;14.80;7.40;;;;;;;;;;4993335;28;25064;-67
2023/09/24 05:22:23;;;;;;;12.25;7.68;;;;;;;;;;4992768;28;25067;-67
2023/09/24 05:24:48;;;;;;;11.07;7.47;;;;;;;;;;4993729;28;25128;-69
2023/09/24 05:27:17;;;;;;;14.55;7.68;;;;;;;;;;4993139;28;25137;-67
2023/09/24 05:29:45;;;;;;;8.57;7.05;;;;;;;;;;4991862;28;25072;-70
2023/09/24 05:32:11;;;;;;;14.30;6.90;;;;;;;;;;4991776;28;25070;-67
2023/09/24 05:34:37;;;;;;;16.67;7.65;;;;;;;;;;4988305;28;25026;-66
2023/09/24 05:37:03;;;;;;;12.30;6.82;;;;;;;;;;4996612;28;25081;-70
2023/09/24 05:39:29;;;;;;;11.38;6.35;;;;;;;;;;4992932;28;25102;-70
2023/09/24 05:41:55;;;;;;;10.48;6.25;;;;;;;;;;4992206;28;25087;-70
2023/09/24 05:44:22;;;;;;;13.60;6.80;;;;;;;;;;4992077;28;25101;-66
2023/09/24 05:46:48;;;;;;;11.18;6.78;;;;;;;;;;4970647;28;25046;-68
2023/09/24 05:49:16;;;;;;;11.50;6.80;;;;;;;;;;4991125;28;25119;-68
2023/09/24 05:51:42;;;;;;;9.55;5.95;;;;;;;;;;4991391;28;25065;-68
2023/09/24 05:54:10;;;;;;;8.90;5.72;;;;;;;;;;4990591;28;25097;-71
2023/09/24 05:56:36;;;;;;;11.77;7.00;;;;;;;;;;4991433;28;25149;-69
2023/09/24 05:59:02;;;;;;;14.00;6.28;;;;;;;;;;4990553;28;25060;-69
2023/09/24 06:01:30;;;;;;;11.07;5.43;;;;;;;;;;4989916;28;25140;-68
2023/09/24 06:03:56;;;;;;;9.77;5.68;;;;;;;;;;4989720;28;25063;-69
2023/09/24 06:06:22;;;;;;;11.10;6.10;;;;;;;;;;4990915;28;25088;-67
2023/09/24 06:08:49;;;;;;;12.48;6.05;;;;;;;;;;4990934;28;25054;-70
2023/09/24 06:11:15;;;;;;;13.00;5.22;;;;;;;;;;4994842;28;25109;-68
2023/09/24 06:13:40;;;;;;;8.73;5.47;;;;;;;;;;4997960;28;24997;-70
2023/09/24 06:16:07;;;;;;;10.88;5.40;;;;;;;;;;4997542;28;25060;-67
2023/09/24 06:18:32;;;;;;;11.02;5.43;;;;;;;;;;4976240;28;25068;-67
2023/09/24 06:20:59;;;;;;;12.20;6.38;;;;;;;;;;4990477;28;25074;-67
2023/09/24 06:23:25;;;;;;;13.07;5.95;;;;;;;;;;4972428;28;25134;-66
2023/09/24 06:25:57;;;;;;;11.57;6.10;;;;;;;;;;4985934;28;25072;-67
2023/09/24 06:28:23;;;;;;;;;;;;;;;;;;4987865;28;25107;-68
2023/09/24 06:30:49;;;;;;;17.65;6.07;;;;;;;;;;4991287;28;24073;-70
2023/09/24 06:33:15;;;;;;;13.77;6.07;;;;;;;;;;4987104;28;25086;-68
2023/09/24 06:35:41;;;;;;;12.00;5.72;;;;;;;;;;4985590;28;25127;-68
2023/09/24 06:38:07;;;;;;;8.93;5.10;;;;;;;;;;4999858;28;25046;-66
2023/09/24 06:40:38;;;;;;;13.13;5.55;;;;;;;;;;5001798;28;25110;-66
2023/09/24 06:43:04;;;;;;;14.18;5.68;;;;;;;;;;5003275;28;25046;-69
2023/09/24 06:45:30;;;;;;;14.07;5.85;;;;;;;;;;4999277;28;25135;-69
2023/09/24 06:47:56;;;;;;;13.07;4.82;;;;;;;;;;4999164;28;25079;-67
2023/09/24 06:50:23;;;;;;;10.27;5.45;;;;;;;;;;4996221;23;25072;-72
2023/09/24 06:52:49;;;;;;;10.20;5.07;;;;;;;;;;4978079;28;25088;-73
2023/09/24 06:55:15;;;;;;;16.10;5.97;;;;;;;;;;4992388;28;25055;-74
2023/09/24 06:57:41;;;;;;;12.20;5.38;;;;;;;;;;4988728;28;25056;-71
2023/09/24 07:00:10;;;;;;;13.90;5.40;;;;;;;;;;4997464;28;25140;-71
2023/09/24 07:02:36;;;;;;;11.75;5.32;;;;;;;;;;4995660;28;25070;-71
2023/09/24 07:05:04;;;;;;;9.98;5.68;;;;;;;;;;4990430;28;25060;-70
2023/09/24 07:07:30;;;;;;;9.35;5.47;;;;;;;;;;4966161;28;25053;-71
2023/09/24 07:09:59;;;;;;;8.10;5.13;;;;;;;;;;4985737;28;25059;-70
2023/09/24 07:12:26;;;;;;;14.55;4.80;;;;;;;;;;4984474;28;25185;-71
2023/09/24 07:14:53;;;;;;;10.38;4.55;;;;;;;;;;4984539;28;25070;-73
2023/09/24 07:17:19;;;;;;;9.48;4.55;;;;;;;;;;4983482;28;25139;-72
2023/09/24 07:19:45;;;;;;;11.77;4.68;;;;;;;;;;4984315;28;25100;-71
2023/09/24 07:22:11;;;;;;;11.98;4.30;;;;;;;;;;4978044;28;25042;-72
2023/09/24 07:24:37;;;;;;;10.00;4.85;;;;;;;;;;4983728;28;25068;-70
2023/09/24 07:27:04;;;;;;;9.18;4.65;;;;;;;;;;4982147;28;25165;-71
2023/09/24 07:29:30;;;;;;;11.10;4.47;;;;;;;;;;4991891;28;25132;-72
2023/09/24 07:31:57;;;;;;;11.80;5.15;;;;;;;;;;4983407;28;25070;-71
2023/09/24 07:34:24;;;;;;;8.50;4.85;;;;;;;;;;4978461;28;25064;-71
2023/09/24 07:36:50;;;;;;;11.45;5.05;;;;;;;;;;4984537;28;25114;-75
2023/09/24 07:39:16;;;;;;;13.88;4.95;;;;;;;;;;4987591;28;25135;-72
2023/09/24 07:41:43;;;;;;;8.15;5.15;;;;;;;;;;4974671;28;25112;-71
2023/09/24 07:44:09;;;;;;;10.48;5.38;;;;;;;;;;4992556;28;25110;-69
2023/09/24 07:46:35;;;;;;;16.08;5.40;;;;;;;;;;4983959;28;25078;-69
2023/09/24 07:49:07;;;;;;;9.43;4.45;;;;;;;;;;4991354;28;25085;-73
2023/09/24 07:51:33;;;;;;;9.10;4.68;;;;;;;;;;4982173;28;25073;-70
2023/09/24 07:54:00;;;;;;;7.80;4.00;;;;;;;;;;4982832;28;25125;-71
2023/09/24 07:56:26;;;;;;;14.27;4.80;;;;;;;;;;4974395;28;25158;-69
2023/09/24 07:58:52;;;;;;;4.40;3.50;;;;;;;;;;4984374;28;25109;-71
2023/09/24 08:01:21;;;;;;;6.40;3.25;;;;;;;;;;4983616;28;25094;-74
2023/09/24 08:03:47;;;;;;;9.38;3.92;;;;;;;;;;4985515;28;25043;-70
2023/09/24 08:06:14;;;;;;;7.25;3.90;;;;;;;;;;4973846;28;25125;-72
2023/09/24 08:08:40;;;;;;;9.38;3.38;;;;;;;;;;4977614;28;25077;-70
2023/09/24 08:11:06;;;;;;;7.32;2.78;;;;;;;;;;4985013;28;25121;-74
2023/09/24 08:13:32;;;;;;;8.77;3.67;;;;;;;;;;4983632;28;25073;-70
2023/09/24 08:15:58;;;;;;;5.22;2.78;;;;;;;;;;4993032;28;25072;-69
2023/09/24 08:18:24;;;;;;;8.68;3.03;;;;;;;;;;4961440;28;25110;-70
2023/09/24 08:20:53;;;;;;;8.05;3.55;;;;;;;;;;4975426;28;25072;-72
2023/09/24 08:23:20;;;;;;;11.10;3.72;;;;;;;;;;4980655;28;25063;-72
2023/09/24 08:25:46;;;;;;;10.23;3.50;;;;;;;;;;4981579;28;25090;-69
2023/09/24 08:28:13;;;;;;;9.25;3.53;;;;;;;;;;4977345;28;25058;-74
2023/09/24 08:30:39;;;;;;;8.23;3.03;;;;;;;;;;4988527;28;25122;-70
2023/09/24 08:33:07;;;;;;;10.07;3.53;;;;;;;;;;4989793;28;25082;-69
2023/09/24 08:35:33;;;;;;;5.72;3.15;;;;;;;;;;4962989;28;25062;-70
2023/09/24 08:37:59;;;;;;;6.95;3.20;;;;;;;;;;4984281;28;25062;-70
2023/09/24 08:40:27;;;;;;;5.90;2.55;;;;;;;;;;4984395;28;25064;-70
2023/09/24 08:42:54;;;;;;;5.25;3.00;;;;;;;;;;4984101;28;25080;-69
2023/09/24 08:45:20;;;;;;;6.38;3.00;;;;;;;;;;4998034;28;25116;-70
2023/09/24 08:47:47;;;;;;;10.20;3.00;;;;;;;;;;4993260;28;25138;-68
2023/09/24 08:50:13;;;;;;;8.70;3.72;;;;;;;;;;4983613;28;25078;-71
2023/09/24 08:52:40;;;;;;;7.68;2.30;;;;;;;;;;4988242;28;25056;-72
2023/09/24 08:55:08;;;;;;;6.05;2.35;;;;;;;;;;4971864;28;25053;-70
2023/09/24 08:57:34;;;;;;;9.23;2.47;;;;;;;;;;4980519;28;25065;-70
2023/09/24 09:00:01;;;;;;;7.75;2.78;;;;;;;;;;4982278;28;25062;-71
2023/09/24 09:02:28;;;;;;;11.43;3.30;;;;;;;;;;4974076;28;25064;-70
2023/09/24 09:04:55;;;;;;;6.32;3.03;;;;;;;;;;4979068;28;25070;-70
2023/09/24 09:07:21;;;;;;;4.93;2.25;;;;;;;;;;4983453;28;25084;-71
2023/09/24 09:09:57;;;;;;;8.32;2.33;;;;;;;;;;4965999;28;25060;-73
2023/09/24 09:12:23;;;;;;;7.65;3.10;;;;;;;;;;4966790;28;25079;-74
2023/09/24 09:14:49;;;;;;;8.27;2.33;;;;;;;;;;4962827;28;25093;-73
2023/09/24 09:17:15;;;;;;;5.07;3.10;;;;;;;;;;4975862;28;25061;-71
2023/09/24 09:19:49;;;;;;;7.07;2.53;;;;;;;;;;4984060;28;25044;-71
2023/09/24 09:22:26;;;;;;;9.30;3.55;;;;;;;;;;4961681;28;25080;-72
2023/09/24 09:25:08;;;;;;;9.77;3.28;;;;;;;;;;4977762;28;25080;-72
2023/09/24 09:27:34;;;;;;;7.90;2.63;;;;;;;;;;4967567;28;25116;-72
2023/09/24 09:30:13;;;;;;;6.40;2.75;;;;;;;;;;4982911;28;25063;-73
2023/09/24 09:32:39;;;;;;;8.50;2.28;;;;;;;;;;4968881;28;25076;-72
2023/09/24 09:35:06;;;;;;;7.22;2.40;;;;;;;;;;4988387;28;25118;-74
2023/09/24 09:37:32;;;;;;;8.40;2.80;;;;;;;;;;4977902;28;25064;-72
2023/09/24 09:39:58;;;;;;;11.43;3.33;;;;;;;;;;4988480;28;25102;-71
2023/09/24 09:42:26;;;;;;;8.73;2.88;;;;;;;;;;4973998;28;25090;-75
2023/09/24 09:44:52;;;;;;;7.65;1.92;;;;;;;;;;4987935;28;25162;-72
2023/09/24 09:47:20;;;;;;;8.18;2.13;;;;;;;;;;4977759;28;25130;-72
2023/09/24 09:49:54;;;;;;;4.40;2.25;;;;;;;;;;4981663;28;25064;-73
2023/09/24 09:52:20;;;;;;;5.13;2.17;;;;;;;;;;4978230;28;25382;-75
2023/09/24 09:54:48;;;;;;;10.27;2.63;;;;;;;;;;4982181;28;25092;-72
2023/09/24 09:57:14;;;;;;;9.57;2.22;;;;;;;;;;4985463;28;25074;-71
2023/09/24 09:59:41;;;;;;;5.43;2.13;;;;;;;;;;4969024;28;25064;-71
2023/09/24 10:02:07;;;;;;;7.95;2.33;;;;;;;;;;4967777;28;25076;-73
2023/09/24 10:04:34;;;;;;;6.10;2.53;;;;;;;;;;4978808;28;25072;-71
2023/09/24 10:07:00;;;;;;;5.95;1.73;;;;;;;;;;4983613;28;25091;-70
2023/09/24 10:09:32;;;;;;;5.18;2.15;;;;;;;;;;4958430;28;25085;-71
2023/09/24 10:11:59;;;;;;;4.53;1.98;;;;;;;;;;4964932;28;25143;-71
2023/09/24 10:14:55;;;;;;;5.05;2.00;;;;;;;;;;4985058;28;25043;-73
2023/09/24 10:17:22;;;;;;;5.47;2.08;;;;;;;;;;4990771;28;25098;-73
2023/09/24 10:19:49;;;;;;;6.38;1.85;;;;;;;;;;4970348;28;25061;-71
2023/09/24 10:22:29;;;;;;;2.25;1.70;;;;;;;;;;4988005;28;25052;-74
2023/09/24 10:24:55;;;;;;;5.00;1.67;;;;;;;;;;4988370;28;25107;-73
2023/09/24 10:27:25;;;;;;;6.07;2.00;;;;;;;;;;4977325;28;25142;-71
2023/09/24 10:29:52;;;;;;;3.85;1.58;;;;;;;;;;4972924;28;25061;-72
2023/09/24 10:32:20;;;;;;;6.70;1.58;;;;;;;;;;4970514;28;25050;-73
2023/09/24 10:34:55;;;;;;;3.53;1.85;;;;;;;;;;4985301;28;25072;-71
2023/09/24 10:37:21;;;;;;;4.18;1.88;;;;;;;;;;4995261;28;25107;-72
2023/09/24 10:40:17;;;;;;;4.35;1.88;;;;;;;;;;4992818;28;25138;-73
2023/09/24 10:42:44;;;;;;;4.47;1.95;;;;;;;;;;4990434;28;25061;-73
2023/09/24 10:45:11;;;;;;;6.28;2.42;;;;;;;;;;5004190;28;25074;-70
2023/09/24 10:47:42;;;;;;;7.40;1.70;;;;;;;;;;4985437;28;25077;-72
2023/09/24 10:50:12;;;;;;;6.40;1.80;;;;;;;;;;4990603;28;25079;-73
2023/09/24 10:52:48;;;;;;;4.95;1.98;;;;;;;;;;4996574;28;25146;-76
2023/09/24 10:55:15;;;;;;;5.22;1.90;;;;;;;;;;4990320;28;25059;-74
2023/09/24 10:57:45;;;;;;;5.32;1.90;;;;;;;;;;4996360;28;25163;-75
2023/09/24 11:00:18;;;;;;;4.82;1.75;;;;;;;;;;4983418;28;25055;-73
2023/09/24 11:02:44;;;;;;;6.32;1.70;;;;;;;;;;4990731;28;25071;-72
2023/09/24 11:05:10;;;;;;;4.85;2.03;;;;;;;;;;4970960;28;25064;-72
2023/09/24 11:07:37;;;;;;;5.35;1.50;;;;;;;;;;4988507;28;25127;-73
2023/09/24 11:10:04;;;;;;;5.88;1.25;;;;;;;;;;4992174;28;25058;-72
2023/09/24 11:12:29;;;;;;;8.57;1.65;;;;;;;;;;4990119;28;25078;-73
2023/09/24 11:14:56;;;;;;;5.22;1.70;;;;;;;;;;4991075;28;25092;-73
2023/09/24 11:17:23;;;;;;;4.53;1.83;;;;;;;;;;4990613;28;25063;-73
2023/09/24 11:19:49;;;;;;;8.60;1.90;;;;;;;;;;4986042;28;25018;-74
2023/09/24 11:22:19;;;;;;;6.65;1.95;;;;;;;;;;4984001;28;25069;-73
2023/09/24 11:24:45;;;;;;;7.32;2.15;;;;;;;;;;4986901;28;25087;-74
2023/09/24 11:27:11;;;;;;;5.97;1.38;;;;;;;;;;4997617;28;25075;-72
2023/09/24 11:29:38;;;;;;;4.05;1.95;;;;;;;;;;4979757;28;25083;-73
2023/09/24 11:32:04;;;;;;;5.95;1.60;;;;;;;;;;4972988;28;25120;-73
2023/09/24 11:34:31;;;;;;;4.75;1.45;;;;;;;;;;4965876;28;25165;-74
2023/09/24 11:36:58;;;;;;;4.93;1.60;;;;;;;;;;4982194;28;25060;-73
2023/09/24 11:39:24;;;;;;;3.20;1.42;;;;;;;;;;4985442;28;25153;-73
2023/09/24 11:41:50;;;;;;;5.43;1.85;;;;;;;;;;4994595;28;25068;-74
2023/09/24 11:44:16;;;;;;;2.72;1.52;;;;;;;;;;4971720;28;25081;-74
2023/09/24 11:46:43;;;;;;;4.97;2.20;;;;;;;;;;4984581;28;25099;-76
2023/09/24 11:49:09;;;;;;;3.28;1.58;;;;;;;;;;5001233;28;25073;-75
2023/09/24 11:51:35;;;;;;;3.63;1.73;;;;;;;;;;5001779;28;25084;-72
2023/09/24 11:54:02;;;;;;;5.93;1.70;;;;;;;;;;4999718;28;25147;-76
2023/09/24 11:56:28;;;;;;;4.88;1.80;;;;;;;;;;5005273;28;25087;-74
2023/09/24 11:58:55;;;;;;;5.47;1.52;;;;;;;;;;4979301;28;25096;-73
2023/09/24 12:01:21;;;;;;;4.15;1.67;;;;;;;;;;4992348;28;25066;-74
2023/09/24 12:03:49;;;;;;;4.13;2.00;;;;;;;;;;4965992;28;25060;-74
2023/09/24 12:06:15;;;;;;;4.35;1.60;;;;;;;;;;4981879;28;25076;-72
2023/09/24 12:08:41;;;;;;;4.30;1.63;;;;;;;;;;4984726;28;25134;-73
2023/09/24 12:11:07;;;;;;;7.15;1.63;;;;;;;;;;4983874;28;25068;-71
2023/09/24 12:13:33;;;;;;;3.28;1.23;;;;;;;;;;4964359;28;25059;-73
2023/09/24 12:15:59;;;;;;;5.78;1.60;;;;;;;;;;4983563;28;25077;-75
2023/09/24 12:18:25;;;;;;;3.28;2.05;;;;;;;;;;4986103;28;25143;-74
2023/09/24 12:20:51;;;;;;;3.78;1.55;;;;;;;;;;4988110;28;25073;-73
2023/09/24 12:23:17;;;;;;;4.90;1.40;;;;;;;;;;4989837;28;25169;-73
2023/09/24 12:25:44;;;;;;;5.03;1.63;;;;;;;;;;4997155;28;25157;-73
2023/09/24 12:28:11;;;;;;;2.83;1.55;;;;;;;;;;4995630;28;25060;-72
2023/09/24 12:30:38;;;;;;;4.35;1.33;;;;;;;;;;4991367;28;25073;-74
2023/09/24 12:33:04;;;;;;;4.38;2.00;;;;;;;;;;4980750;28;25060;-72
2023/09/24 12:35:30;;;;;;;5.10;1.60;;;;;;;;;;4965322;28;25167;-74
2023/09/24 12:37:56;;;;;;;5.28;1.48;;;;;;;;;;4989551;28;25050;-73
2023/09/24 12:40:23;;;;;;;4.60;2.20;;;;;;;;;;4989954;28;25066;-74
2023/09/24 12:42:49;;;;;;;7.72;1.63;;;;;;;;;;4987939;28;25057;-73
2023/09/24 12:45:16;;;;;;;3.50;1.52;;;;;;;;;;4998597;28;25067;-73
2023/09/24 12:47:42;;;;;;;6.13;1.60;;;;;;;;;;4998614;28;25092;-73
2023/09/24 12:50:09;;;;;;;1.92;1.25;;;;;;;;;;4985364;28;25077;-72
2023/09/24 12:52:38;;;;;;;3.50;1.55;;;;;;;;;;4980644;28;25057;-75
2023/09/24 12:55:06;;;;;;;2.67;1.20;;;;;;;;;;4986169;28;25061;-73
2023/09/24 12:57:32;;;;;;;1.98;1.10;;;;;;;;;;4980099;28;25061;-73
2023/09/24 12:59:58;;;;;;;6.05;1.48;;;;;;;;;;4985288;28;25065;-73
2023/09/24 13:02:27;;;;;;;1.25;1.10;;;;;;;;;;4965293;28;25107;-70
2023/09/24 13:04:53;;;;;;;8.07;1.50;;;;;;;;;;4979515;28;25077;-74
2023/09/24 13:07:19;;;;;;;4.10;1.52;;;;;;;;;;4978359;28;25077;-71
2023/09/24 13:09:45;;;;;;;3.35;1.73;;;;;;;;;;4984639;28;25086;-72
2023/09/24 13:12:15;;;;;;;6.20;1.73;;;;;;;;;;4985047;28;24937;-70
2023/09/24 13:14:41;;;;;;;3.35;1.38;;;;;;;;;;4987067;28;25137;-72
2023/09/24 13:17:07;;;;;;;3.97;1.63;;;;;;;;;;4982519;28;25096;-73
2023/09/24 13:19:33;;;;;;;4.90;1.23;;;;;;;;;;4970542;28;25062;-68
2023/09/24 13:21:59;;;;;;;7.85;1.90;;;;;;;;;;4986078;28;25196;-70
2023/09/24 13:24:25;;;;;;;6.72;1.77;;;;;;;;;;4964300;28;25066;-72
2023/09/24 13:26:51;;;;;;;4.30;1.88;;;;;;;;;;4981777;28;25067;-74
2023/09/24 13:29:17;;;;;;;5.30;1.55;;;;;;;;;;4980597;28;25092;-72
2023/09/24 13:31:44;;;;;;;4.70;1.50;;;;;;;;;;4975369;28;25091;-72
2023/09/24 13:34:11;;;;;;;4.13;1.67;;;;;;;;;;4980128;28;25066;-73
2023/09/24 13:36:37;;;;;;;8.45;1.83;;;;;;;;;;4979778;28;25067;-73
2023/09/24 13:39:03;;;;;;;5.68;1.23;;;;;;;;;;4988844;28;25071;-73
2023/09/24 13:41:29;;;;;;;5.72;1.45;;;;;;;;;;4986223;28;25073;-72
2023/09/24 13:43:56;;;;;;;7.20;1.13;;;;;;;;;;4981782;28;25092;-71
2023/09/24 13:46:22;;;;;;;3.13;0.95;;;;;;;;;;4977834;28;24865;-72
2023/09/24 13:48:55;;;;;;;3.53;1.90;;;;;;;;;;4987453;28;25085;-72
2023/09/24 13:51:21;;;;;;;3.38;1.40;;;;;;;;;;4978569;28;25071;-73
2023/09/24 13:53:50;;;;;;;5.28;1.38;;;;;;;;;;4961389;28;25042;-73
2023/09/24 13:56:16;;;;;;;4.72;1.75;;;;;;;;;;4984755;28;25063;-68
2023/09/24 13:58:42;;;;;;;3.72;1.60;;;;;;;;;;4964631;28;25155;-73
2023/09/24 14:01:09;;;;;;;4.88;1.70;;;;;;;;;;4977900;28;25085;-72
2023/09/24 14:03:35;;;;;;;3.05;1.60;;;;;;;;;;4968292;28;25063;-75
2023/09/24 14:06:01;;;;;;;4.35;1.52;;;;;;;;;;4981205;28;25115;-70
2023/09/24 14:14:10;;;;;;;5.90;1.65;;;;;;;;;;4984448;28;25076;-72
2023/09/24 14:16:44;;;;;;;2.38;1.35;;;;;;;;;;4980553;28;25068;-69
2023/09/24 14:19:10;;;;;;;6.97;1.02;;;;;;;;;;4979442;28;25063;-71
2023/09/24 14:21:36;;;;;;;3.55;1.50;;;;;;;;;;4974012;28;25084;-70
2023/09/24 14:24:02;;;;;;;3.67;1.50;;;;;;;;;;4980927;28;25063;-70
2023/09/24 14:26:28;;;;;;;2.85;1.63;;;;;;;;;;4981194;28;25125;-71
2023/09/24 14:28:58;;;;;;;4.53;1.48;;;;;;;;;;4976697;28;25057;-71
2023/09/24 14:31:25;;;;;;;5.80;1.50;;;;;;;;;;4974377;28;25153;-70
2023/09/24 14:33:51;;;;;;;7.20;1.67;;;;;;;;;;4960625;28;25101;-71
2023/09/24 14:36:18;;;;;;;4.97;1.77;;;;;;;;;;4974485;28;25150;-69
2023/09/24 14:38:44;;;;;;;2.38;1.27;;;;;;;;;;4982565;28;25056;-77
2023/09/24 14:41:11;;;;;;;3.17;1.42;;;;;;;;;;4978503;28;25067;-69
2023/09/24 14:43:37;;;;;;;2.45;1.60;;;;;;;;;;4977214;28;25091;-71